createdAt,value
2022-09-22T00:01:05.080Z,4.93
2022-09-22T00:03:45.386Z,1.52
2022-09-22T00:06:16.980Z,5.65
2022-09-22T00:08:49.161Z,3.90
2022-09-22T00:11:17.758Z,2.00
2022-09-22T00:13:51.055Z,1.95
2022-09-22T00:16:25.272Z,1.65
2022-09-22T00:18:53.173Z,5.25
2022-09-22T00:21:34.440Z,2.80
2022-09-22T00:24:02.596Z,1.50
2022-09-22T00:26:31.156Z,2.10
2022-09-22T00:29:01.494Z,1.40
2022-09-22T00:31:34.700Z,8.15
2022-09-22T00:34:01.753Z,3.83
2022-09-22T00:36:33.436Z,4.43
2022-09-22T00:39:00.147Z,1.80
2022-09-22T00:44:31.405Z,3.90
2022-09-22T00:47:38.948Z,3.00
2022-09-22T00:50:32.043Z,0.90
2022-09-22T00:53:08.423Z,2.00
2022-09-22T00:56:27.852Z,2.47
2022-09-22T00:59:07.785Z,1.63
2022-09-22T01:01:40.940Z,2.50
2022-09-22T01:04:10.985Z,2.10
2022-09-22T01:07:00.550Z,1.77
2022-09-22T01:09:28.284Z,1.70
2022-09-22T01:11:55.136Z,2.03
2022-09-22T01:15:12.912Z,1.20
2022-09-22T01:18:14.355Z,0.98
2022-09-22T01:21:05.269Z,1.67
2022-09-22T01:28:03.769Z,1.33
2022-09-22T01:34:13.591Z,1.48
2022-09-22T01:37:20.638Z,0.98
2022-09-22T01:40:11.772Z,2.05
2022-09-22T01:47:01.519Z,1.10
2022-09-22T01:49:33.776Z,0.93
2022-09-22T01:52:59.551Z,1.58
2022-09-22T01:55:31.203Z,2.13
2022-09-22T01:58:05.698Z,1.50
2022-09-22T02:00:39.375Z,1.80
2022-09-22T02:04:05.715Z,2.05
2022-09-22T02:07:05.097Z,1.30
2022-09-22T02:09:39.012Z,1.90
2022-09-22T02:12:05.622Z,4.60
2022-09-22T02:14:32.555Z,0.87
2022-09-22T02:17:15.664Z,1.00
2022-09-22T02:19:49.920Z,1.02
2022-09-22T02:22:54.330Z,1.00
2022-09-22T02:25:24.911Z,2.40
2022-09-22T02:27:55.064Z,1.57
2022-09-22T02:30:38.368Z,3.50
2022-09-22T02:33:40.695Z,0.98
2022-09-22T02:36:20.409Z,3.42
2022-09-22T02:39:08.964Z,1.45
2022-09-22T02:42:32.560Z,0.87
2022-09-22T02:45:17.124Z,1.95
2022-09-22T02:47:48.983Z,1.48
2022-09-22T02:50:27.665Z,0.80
2022-09-22T02:53:10.316Z,1.23
2022-09-22T02:55:38.268Z,1.40
2022-09-22T03:02:31.115Z,2.92
2022-09-22T03:04:57.738Z,4.10
2022-09-22T03:07:31.353Z,4.38
2022-09-22T03:09:58.196Z,2.30
2022-09-22T03:12:24.661Z,2.80
2022-09-22T03:14:55.482Z,2.08
2022-09-22T03:17:21.807Z,2.50
2022-09-22T03:19:48.212Z,3.50
2022-09-22T03:22:16.970Z,1.67
2022-09-22T03:24:46.335Z,2.13
2022-09-22T03:27:14.796Z,2.08
2022-09-22T03:29:43.953Z,1.02
2022-09-22T03:32:15.905Z,1.88
2022-09-22T03:34:42.471Z,3.60
2022-09-22T03:37:08.786Z,1.33
2022-09-22T03:39:35.123Z,2.20
2022-09-22T03:42:52.498Z,1.88
2022-09-22T03:45:19.176Z,4.90
2022-09-22T03:47:46.674Z,2.13
2022-09-22T03:50:16.097Z,1.27
2022-09-22T03:53:37.037Z,1.02
2022-09-22T04:00:10.345Z,2.42
2022-09-22T04:02:43.162Z,0.83
2022-09-22T04:05:12.692Z,1.75
2022-09-22T04:07:46.671Z,1.45
2022-09-22T04:10:14.732Z,2.40
2022-09-22T04:13:27.216Z,3.53
2022-09-22T04:23:22.855Z,1.70
2022-09-22T04:25:53.502Z,4.00
2022-09-22T04:28:19.940Z,3.65
2022-09-22T04:34:32.714Z,0.88
2022-09-22T04:40:51.941Z,4.38
2022-09-22T04:47:09.265Z,1.53
2022-09-22T04:49:38.441Z,1.30
2022-09-22T04:55:56.468Z,1.73
2022-09-22T04:58:26.221Z,2.35
2022-09-22T05:01:40.871Z,1.30
2022-09-22T05:04:07.275Z,1.17
2022-09-22T05:14:08.453Z,2.63
2022-09-22T05:20:21.771Z,1.20
2022-09-22T05:23:19.991Z,2.53
2022-09-22T05:25:46.308Z,1.23
2022-09-22T05:29:14.409Z,1.30
2022-09-22T05:32:44.392Z,1.20
2022-09-22T05:35:14.659Z,1.30
2022-09-22T05:37:48.887Z,2.85
2022-09-22T05:44:06.607Z,2.53
2022-09-22T05:46:32.981Z,2.23
2022-09-22T05:48:59.289Z,1.98
2022-09-22T05:51:58.877Z,1.10
2022-09-22T05:54:28.180Z,1.48
2022-09-22T05:57:11.167Z,1.50
2022-09-22T06:03:25.885Z,10.65
2022-09-22T06:06:07.289Z,2.80
2022-09-22T06:08:43.962Z,1.88
2022-09-22T06:15:05.337Z,2.10
2022-09-22T06:17:32.905Z,2.13
2022-09-22T06:20:14.659Z,2.10
2022-09-22T06:22:40.989Z,1.90
2022-09-22T06:25:20.492Z,2.53
2022-09-22T06:28:04.653Z,5.33
2022-09-22T06:34:21.391Z,1.00
2022-09-22T06:40:28.216Z,3.50
2022-09-22T06:47:13.205Z,1.88
2022-09-22T06:49:42.272Z,4.38
2022-09-22T06:52:15.080Z,5.30
2022-09-22T06:55:39.790Z,2.60
2022-09-22T06:58:06.346Z,2.07
2022-09-22T07:00:41.952Z,4.80
2022-09-22T07:06:55.695Z,3.13
2022-09-22T07:16:52.822Z,5.95
2022-09-22T07:23:52.930Z,5.53
2022-09-22T07:37:39.137Z,6.53
2022-09-22T07:43:58.764Z,5.32
2022-09-22T07:47:16.954Z,3.50
2022-09-22T07:49:48.092Z,5.25
2022-09-22T07:56:36.507Z,5.35
2022-09-22T07:59:17.158Z,6.78
2022-09-22T08:05:31.049Z,6.53
2022-09-22T08:08:53.647Z,8.02
2022-09-22T08:15:45.965Z,6.72
2022-09-22T08:18:12.340Z,5.20
2022-09-22T08:20:50.307Z,7.63
2022-09-22T08:27:32.078Z,9.75
2022-09-22T08:29:58.409Z,6.80
2022-09-22T08:32:29.172Z,6.60
2022-09-22T08:34:58.013Z,5.20
2022-09-22T08:42:05.701Z,5.78
2022-09-22T09:03:57.643Z,7.53
2022-09-22T09:10:56.526Z,6.28
2022-09-22T09:21:36.481Z,5.75
2022-09-22T09:35:06.797Z,6.57
2022-09-22T09:45:59.170Z,3.17
2022-09-22T09:53:18.494Z,4.78
2022-09-22T10:06:31.958Z,4.93
2022-09-22T10:20:34.179Z,4.30
2022-09-22T10:30:32.897Z,3.35
2022-09-22T10:36:35.155Z,2.38
2022-09-22T10:55:22.466Z,2.75
2022-09-22T11:21:01.897Z,2.20
2022-09-22T11:35:05.849Z,2.33
2022-09-22T12:01:37.293Z,3.63
2022-09-22T12:05:06.280Z,3.30
2022-09-22T12:11:39.639Z,2.53
2022-09-22T12:14:30.552Z,2.05
2022-09-22T12:24:29.646Z,1.85
2022-09-22T12:27:52.724Z,4.15
2022-09-22T12:30:24.271Z,1.88
2022-09-22T12:43:35.491Z,2.28
2022-09-22T12:57:19.118Z,2.75
2022-09-22T13:03:38.736Z,1.65
2022-09-22T13:09:45.514Z,2.47
2022-09-22T13:12:28.026Z,2.35
2022-09-22T13:15:29.112Z,1.40
2022-09-22T13:17:59.287Z,2.35
2022-09-22T13:24:53.571Z,2.10
2022-09-22T13:27:20.035Z,8.07
2022-09-22T13:30:36.686Z,2.00
2022-09-22T13:33:03.272Z,1.75
2022-09-22T13:39:15.893Z,1.80
2022-09-22T13:45:30.400Z,2.03
2022-09-22T13:57:56.118Z,1.70
2022-09-22T14:01:15.422Z,2.42
2022-09-22T14:04:41.538Z,1.30
2022-09-22T14:07:13.184Z,2.85
2022-09-22T14:10:02.479Z,1.83
2022-09-22T14:12:32.101Z,2.10
2022-09-22T14:18:50.774Z,1.88
2022-09-22T14:25:04.693Z,2.27
2022-09-22T14:27:36.021Z,3.15
2022-09-22T14:30:43.585Z,3.25
2022-09-22T14:44:35.226Z,1.92
2022-09-22T14:54:31.484Z,1.60
2022-09-22T15:04:39.828Z,5.13
2022-09-22T15:07:16.272Z,3.35
2022-09-22T15:10:39.452Z,1.65
2022-09-22T15:13:39.062Z,1.70
2022-09-22T15:27:07.939Z,1.40
2022-09-22T15:44:18.979Z,1.00
2022-09-22T16:02:01.154Z,2.40
2022-09-22T16:08:16.715Z,1.67
2022-09-22T16:14:28.993Z,2.47
2022-09-22T16:16:55.326Z,3.30
2022-09-22T16:33:18.020Z,1.92
2022-09-22T16:39:31.933Z,2.13
2022-09-22T16:49:35.645Z,1.75
2022-09-22T17:03:49.807Z,3.83
2022-09-22T17:10:07.916Z,1.00
2022-09-22T17:16:56.566Z,1.30
2022-09-22T17:23:10.536Z,1.42
2022-09-22T17:25:58.997Z,1.67
2022-09-22T17:28:28.973Z,1.90
2022-09-22T17:30:59.382Z,2.13
2022-09-22T17:33:36.945Z,4.82
2022-09-22T17:36:05.666Z,2.70
2022-09-22T17:38:37.478Z,1.60
2022-09-22T17:41:09.160Z,2.13
2022-09-22T17:43:48.349Z,2.08
2022-09-22T17:46:22.184Z,6.03
2022-09-22T17:49:10.813Z,4.32
2022-09-22T17:51:58.997Z,2.67
2022-09-22T17:55:01.236Z,1.92
2022-09-22T17:57:39.213Z,2.63
2022-09-22T18:00:12.537Z,5.53
2022-09-22T18:02:39.253Z,4.85
2022-09-22T18:05:11.038Z,5.23
2022-09-22T18:07:41.684Z,3.50
2022-09-22T18:10:14.490Z,3.97
2022-09-22T18:12:46.265Z,2.75
2022-09-22T18:15:15.934Z,3.60
2022-09-22T18:17:46.473Z,4.27
2022-09-22T18:20:24.413Z,3.20
2022-09-22T18:22:50.847Z,2.92
2022-09-22T18:25:26.601Z,7.47
2022-09-22T18:27:57.738Z,5.35
2022-09-22T18:30:39.520Z,6.73
2022-09-22T18:33:06.089Z,4.88
2022-09-22T18:35:33.151Z,4.10
2022-09-22T18:38:00.912Z,4.43
2022-09-22T18:40:31.493Z,4.10
2022-09-22T18:42:57.882Z,3.97
2022-09-22T18:45:25.072Z,3.47
2022-09-22T18:47:51.965Z,7.30
2022-09-22T18:50:21.540Z,5.18
2022-09-22T18:53:01.240Z,7.75
2022-09-22T18:55:32.350Z,4.70
2022-09-22T18:58:00.857Z,7.03
2022-09-22T19:00:28.339Z,7.40
2022-09-22T19:02:54.808Z,5.07
2022-09-22T19:05:21.220Z,4.32
2022-09-22T19:07:58.228Z,4.63
2022-09-22T19:10:24.819Z,5.15
2022-09-22T19:12:59.696Z,4.70
2022-09-22T19:15:26.356Z,6.32
2022-09-22T19:17:55.708Z,4.57
2022-09-22T19:20:26.132Z,10.07
2022-09-22T19:22:54.247Z,3.60
2022-09-22T19:25:28.127Z,4.82
2022-09-22T19:27:55.510Z,9.30
2022-09-22T19:30:29.640Z,5.35
2022-09-22T19:32:57.739Z,4.73
2022-09-22T19:39:11.095Z,7.65
2022-09-22T19:49:06.134Z,4.37
2022-09-22T19:51:33.169Z,9.48
2022-09-22T19:57:56.411Z,4.32
2022-09-22T20:00:29.816Z,6.32
2022-09-22T20:03:03.857Z,9.57
2022-09-22T20:17:20.080Z,6.18
2022-09-22T20:19:46.422Z,8.23
2022-09-22T20:22:25.626Z,5.32
2022-09-22T20:24:58.346Z,6.05
2022-09-22T20:31:28.995Z,4.38
2022-09-22T20:34:02.803Z,6.27
2022-09-22T20:40:34.980Z,9.38
2022-09-22T20:43:01.493Z,9.82
2022-09-22T20:49:17.086Z,7.57
2022-09-22T20:51:43.485Z,7.15
2022-09-22T21:06:09.951Z,5.50
2022-09-22T21:19:31.190Z,5.55
2022-09-22T21:25:44.509Z,5.57
2022-09-22T21:32:02.891Z,5.60
2022-09-22T21:34:29.597Z,4.38
2022-09-22T21:36:58.829Z,6.50
2022-09-22T21:39:52.348Z,5.60
2022-09-22T21:45:32.537Z,6.55
2022-09-22T21:47:58.967Z,6.32
2022-09-22T21:51:19.487Z,6.77
2022-09-22T21:53:52.093Z,8.60
2022-09-22T21:56:22.492Z,8.88
2022-09-22T21:58:55.803Z,8.77
2022-09-22T22:05:24.521Z,6.70
2022-09-22T22:15:24.384Z,6.80
2022-09-22T22:21:41.654Z,8.03
2022-09-22T22:24:57.517Z,10.98
2022-09-22T22:31:20.564Z,8.65
2022-09-22T22:37:43.547Z,11.37
2022-09-22T22:43:59.196Z,6.25
2022-09-22T22:50:54.287Z,7.05
2022-09-22T22:59:58.160Z,11.32
2022-09-22T23:02:24.468Z,7.03
2022-09-22T23:04:53.302Z,7.55
2022-09-22T23:07:23.698Z,9.33
2022-09-22T23:10:06.678Z,7.68
2022-09-22T23:12:47.169Z,7.28
2022-09-22T23:19:09.344Z,9.85
2022-09-22T23:25:23.390Z,11.10
2022-09-22T23:27:51.978Z,8.07
2022-09-22T23:30:18.446Z,9.75
2022-09-22T23:32:48.947Z,10.80
2022-09-22T23:35:18.205Z,8.30
2022-09-22T23:41:36.753Z,10.68
2022-09-22T23:48:19.535Z,6.60
2022-09-22T23:50:51.875Z,9.53
2022-09-22T23:53:28.222Z,8.93
2022-09-22T23:55:54.562Z,8.13
2022-09-22T23:58:23.341Z,6.22
